sensor_id;sensor_type;location;lat;lon;timestamp;pressure;altitude;pressure_sealevel;temperature;humidity
73501;BME280;61721;42.206;25.320;2023-05-23T00:02:33;99215.28;;;17.52;65.57
73501;BME280;61721;42.206;25.320;2023-05-23T00:05:10;99201.38;;;16.98;67.73
73501;BME280;61721;42.206;25.320;2023-05-23T00:07:47;99205.69;;;16.67;68.70
73501;BME280;61721;42.206;25.320;2023-05-23T00:10:27;99211.91;;;17.26;66.76
73501;BME280;61721;42.206;25.320;2023-05-23T00:13:03;99207.22;;;17.39;66.02
73501;BME280;61721;42.206;25.320;2023-05-23T00:15:42;99214.00;;;17.24;66.75
73501;BME280;61721;42.206;25.320;2023-05-23T00:18:19;99205.19;;;17.28;66.63
73501;BME280;61721;42.206;25.320;2023-05-23T00:20:56;99208.47;;;17.37;66.10
73501;BME280;61721;42.206;25.320;2023-05-23T00:23:31;99201.63;;;17.28;66.45
73501;BME280;61721;42.206;25.320;2023-05-23T00:26:10;99198.41;;;17.06;66.94
73501;BME280;61721;42.206;25.320;2023-05-23T00:28:46;99196.97;;;17.03;66.94
73501;BME280;61721;42.206;25.320;2023-05-23T00:31:22;99191.97;;;17.32;66.44
73501;BME280;61721;42.206;25.320;2023-05-23T00:33:57;99186.47;;;16.69;67.79
73501;BME280;61721;42.206;25.320;2023-05-23T00:36:34;99185.03;;;17.04;66.75
73501;BME280;61721;42.206;25.320;2023-05-23T00:39:10;99184.91;;;16.86;67.48
73501;BME280;61721;42.206;25.320;2023-05-23T00:41:53;99188.91;;;16.83;67.21
73501;BME280;61721;42.206;25.320;2023-05-23T00:44:30;99192.63;;;16.89;67.08
73501;BME280;61721;42.206;25.320;2023-05-23T00:47:06;99195.22;;;16.71;67.84
73501;BME280;61721;42.206;25.320;2023-05-23T00:49:45;99193.06;;;16.86;66.41
73501;BME280;61721;42.206;25.320;2023-05-23T00:52:22;99197.47;;;16.87;66.32
73501;BME280;61721;42.206;25.320;2023-05-23T00:54:59;99197.53;;;16.74;66.15
73501;BME280;61721;42.206;25.320;2023-05-23T00:57:38;99188.13;;;16.70;66.58
73501;BME280;61721;42.206;25.320;2023-05-23T01:00:24;99197.84;;;16.97;65.15
73501;BME280;61721;42.206;25.320;2023-05-23T01:03:02;99193.09;;;16.79;65.73
73501;BME280;61721;42.206;25.320;2023-05-23T01:05:39;99197.66;;;16.21;67.58
73501;BME280;61721;42.206;25.320;2023-05-23T01:08:16;99192.31;;;16.59;66.36
73501;BME280;61721;42.206;25.320;2023-05-23T01:10:52;99188.97;;;16.57;66.30
73501;BME280;61721;42.206;25.320;2023-05-23T01:13:38;99187.06;;;16.64;66.41
73501;BME280;61721;42.206;25.320;2023-05-23T01:16:22;99182.75;;;16.43;66.58
73501;BME280;61721;42.206;25.320;2023-05-23T01:19:16;99180.28;;;16.35;67.09
73501;BME280;61721;42.206;25.320;2023-05-23T01:22:02;99187.34;;;16.49;66.35
73501;BME280;61721;42.206;25.320;2023-05-23T01:24:49;99186.59;;;16.16;66.00
73501;BME280;61721;42.206;25.320;2023-05-23T01:27:47;99185.13;;;16.20;66.15
73501;BME280;61721;42.206;25.320;2023-05-23T01:30:24;99184.31;;;16.06;66.36
73501;BME280;61721;42.206;25.320;2023-05-23T01:33:02;99175.66;;;16.36;65.40
73501;BME280;61721;42.206;25.320;2023-05-23T01:35:40;99189.66;;;16.39;65.30
73501;BME280;61721;42.206;25.320;2023-05-23T01:38:17;99173.66;;;16.11;66.10
73501;BME280;61721;42.206;25.320;2023-05-23T01:40:53;99172.63;;;15.99;65.95
73501;BME280;61721;42.206;25.320;2023-05-23T01:43:33;99175.91;;;16.28;65.14
73501;BME280;61721;42.206;25.320;2023-05-23T01:46:10;99180.13;;;16.10;65.55
73501;BME280;61721;42.206;25.320;2023-05-23T01:48:46;99170.94;;;15.98;65.58
73501;BME280;61721;42.206;25.320;2023-05-23T01:51:24;99167.81;;;15.95;65.91
73501;BME280;61721;42.206;25.320;2023-05-23T01:54:01;99168.66;;;16.02;65.21
73501;BME280;61721;42.206;25.320;2023-05-23T01:56:37;99171.56;;;16.00;65.84
73501;BME280;61721;42.206;25.320;2023-05-23T01:59:17;99169.47;;;16.09;65.51
73501;BME280;61721;42.206;25.320;2023-05-23T02:01:53;99165.13;;;15.81;66.05
73501;BME280;61721;42.206;25.320;2023-05-23T02:04:29;99163.88;;;15.90;66.09
73501;BME280;61721;42.206;25.320;2023-05-23T02:07:06;99165.22;;;16.33;64.09
73501;BME280;61721;42.206;25.320;2023-05-23T02:09:42;99170.03;;;16.37;64.19
73501;BME280;61721;42.206;25.320;2023-05-23T02:12:18;99166.13;;;16.07;65.25
73501;BME280;61721;42.206;25.320;2023-05-23T02:14:56;99169.06;;;15.99;65.18
73501;BME280;61721;42.206;25.320;2023-05-23T02:17:34;99176.19;;;15.80;65.63
73501;BME280;61721;42.206;25.320;2023-05-23T02:20:10;99171.59;;;15.87;65.75
73501;BME280;61721;42.206;25.320;2023-05-23T02:22:47;99172.44;;;15.48;67.48
73501;BME280;61721;42.206;25.320;2023-05-23T02:25:23;99172.00;;;15.24;67.06
73501;BME280;61721;42.206;25.320;2023-05-23T02:27:59;99174.09;;;15.42;66.62
73501;BME280;61721;42.206;25.320;2023-05-23T02:30:37;99172.91;;;15.58;66.18
73501;BME280;61721;42.206;25.320;2023-05-23T02:33:14;99180.38;;;15.89;64.95
73501;BME280;61721;42.206;25.320;2023-05-23T02:35:51;99177.47;;;15.64;65.12
73501;BME280;61721;42.206;25.320;2023-05-23T02:38:28;99180.38;;;15.36;65.96
73501;BME280;61721;42.206;25.320;2023-05-23T02:41:04;99175.34;;;15.26;65.58
73501;BME280;61721;42.206;25.320;2023-05-23T02:43:40;99176.59;;;15.37;65.74
73501;BME280;61721;42.206;25.320;2023-05-23T02:46:18;99177.84;;;15.35;65.66
73501;BME280;61721;42.206;25.320;2023-05-23T02:48:55;99175.72;;;15.04;66.53
73501;BME280;61721;42.206;25.320;2023-05-23T02:51:31;99178.59;;;14.89;67.05
73501;BME280;61721;42.206;25.320;2023-05-23T02:54:07;99184.66;;;14.91;67.25
73501;BME280;61721;42.206;25.320;2023-05-23T02:56:44;99180.25;;;14.83;68.04
73501;BME280;61721;42.206;25.320;2023-05-23T02:59:22;99180.72;;;15.07;67.88
73501;BME280;61721;42.206;25.320;2023-05-23T03:02:01;99179.28;;;15.11;67.09
73501;BME280;61721;42.206;25.320;2023-05-23T03:04:38;99180.78;;;15.46;65.97
73501;BME280;61721;42.206;25.320;2023-05-23T03:07:14;99177.03;;;15.74;64.67
73501;BME280;61721;42.206;25.320;2023-05-23T03:09:52;99175.78;;;15.76;64.89
73501;BME280;61721;42.206;25.320;2023-05-23T03:12:28;99181.63;;;15.73;65.12
73501;BME280;61721;42.206;25.320;2023-05-23T03:15:06;99183.09;;;15.49;65.60
73501;BME280;61721;42.206;25.320;2023-05-23T03:17:44;99177.03;;;15.54;65.45
73501;BME280;61721;42.206;25.320;2023-05-23T03:20:21;99181.88;;;15.58;65.75
73501;BME280;61721;42.206;25.320;2023-05-23T03:22:57;99191.03;;;15.51;65.92
73501;BME280;61721;42.206;25.320;2023-05-23T03:25:33;99184.56;;;15.65;65.81
73501;BME280;61721;42.206;25.320;2023-05-23T03:28:09;99179.97;;;15.72;66.22
73501;BME280;61721;42.206;25.320;2023-05-23T03:30:45;99179.53;;;15.75;65.62
73501;BME280;61721;42.206;25.320;2023-05-23T03:33:23;99186.44;;;15.84;64.96
73501;BME280;61721;42.206;25.320;2023-05-23T03:36:00;99189.34;;;14.63;68.61
73501;BME280;61721;42.206;25.320;2023-05-23T03:38:40;99191.75;;;14.99;67.93
73501;BME280;61721;42.206;25.320;2023-05-23T03:41:18;99194.41;;;14.79;68.28
73501;BME280;61721;42.206;25.320;2023-05-23T03:43:55;99186.22;;;15.53;67.18
73501;BME280;61721;42.206;25.320;2023-05-23T03:46:32;99197.34;;;14.84;69.33
73501;BME280;61721;42.206;25.320;2023-05-23T03:49:10;99189.25;;;14.43;70.81
73501;BME280;61721;42.206;25.320;2023-05-23T03:51:48;99196.22;;;14.58;71.02
73501;BME280;61721;42.206;25.320;2023-05-23T03:54:24;99198.00;;;14.45;71.71
73501;BME280;61721;42.206;25.320;2023-05-23T03:57:00;99193.44;;;15.06;69.93
73501;BME280;61721;42.206;25.320;2023-05-23T03:59:36;99199.97;;;15.25;68.87
73501;BME280;61721;42.206;25.320;2023-05-23T04:02:12;99203.31;;;15.27;69.07
73501;BME280;61721;42.206;25.320;2023-05-23T04:04:50;99210.09;;;14.90;70.97
73501;BME280;61721;42.206;25.320;2023-05-23T04:07:28;99211.97;;;14.96;71.17
73501;BME280;61721;42.206;25.320;2023-05-23T04:10:08;99206.47;;;15.50;69.63
73501;BME280;61721;42.206;25.320;2023-05-23T04:12:44;99203.97;;;15.82;68.68
73501;BME280;61721;42.206;25.320;2023-05-23T04:15:20;99203.28;;;15.20;70.40
73501;BME280;61721;42.206;25.320;2023-05-23T04:17:57;99210.84;;;15.84;69.08
73501;BME280;61721;42.206;25.320;2023-05-23T04:20:36;99215.88;;;15.94;69.22
73501;BME280;61721;42.206;25.320;2023-05-23T04:23:13;99218.13;;;16.17;68.20
73501;BME280;61721;42.206;25.320;2023-05-23T04:25:49;99221.22;;;16.47;67.34
73501;BME280;61721;42.206;25.320;2023-05-23T04:28:31;99220.41;;;16.40;67.43
73501;BME280;61721;42.206;25.320;2023-05-23T04:31:09;99221.81;;;16.55;67.62
73501;BME280;61721;42.206;25.320;2023-05-23T04:33:45;99221.19;;;16.53;67.26
73501;BME280;61721;42.206;25.320;2023-05-23T04:36:25;99223.00;;;16.79;66.60
73501;BME280;61721;42.206;25.320;2023-05-23T04:39:02;99225.50;;;17.26;65.80
73501;BME280;61721;42.206;25.320;2023-05-23T04:41:38;99237.06;;;16.56;67.67
73501;BME280;61721;42.206;25.320;2023-05-23T04:44:16;99229.53;;;16.59;68.29
73501;BME280;61721;42.206;25.320;2023-05-23T04:46:52;99232.88;;;16.74;67.75
73501;BME280;61721;42.206;25.320;2023-05-23T04:49:27;99239.06;;;16.94;67.06
73501;BME280;61721;42.206;25.320;2023-05-23T04:52:09;99242.94;;;17.18;66.53
73501;BME280;61721;42.206;25.320;2023-05-23T04:54:46;99250.78;;;17.33;65.84
73501;BME280;61721;42.206;25.320;2023-05-23T04:57:22;99243.22;;;17.03;67.12
73501;BME280;61721;42.206;25.320;2023-05-23T04:59:59;99255.59;;;16.93;66.81
73501;BME280;61721;42.206;25.320;2023-05-23T05:02:45;99258.03;;;17.07;66.70
73501;BME280;61721;42.206;25.320;2023-05-23T05:05:21;99254.91;;;17.04;66.94
73501;BME280;61721;42.206;25.320;2023-05-23T05:07:59;99260.97;;;17.06;67.15
73501;BME280;61721;42.206;25.320;2023-05-23T05:10:38;99261.66;;;17.39;65.85
73501;BME280;61721;42.206;25.320;2023-05-23T05:13:16;99261.81;;;17.44;66.11
73501;BME280;61721;42.206;25.320;2023-05-23T05:15:52;99261.56;;;17.52;65.92
73501;BME280;61721;42.206;25.320;2023-05-23T05:18:35;99257.03;;;17.02;67.70
73501;BME280;61721;42.206;25.320;2023-05-23T05:21:12;99267.56;;;16.85;67.72
73501;BME280;61721;42.206;25.320;2023-05-23T05:23:51;99262.56;;;17.27;66.70
73501;BME280;61721;42.206;25.320;2023-05-23T05:26:29;99261.78;;;17.51;66.40
73501;BME280;61721;42.206;25.320;2023-05-23T05:29:05;99268.91;;;17.52;66.57
73501;BME280;61721;42.206;25.320;2023-05-23T05:31:41;99274.06;;;17.29;67.38
73501;BME280;61721;42.206;25.320;2023-05-23T05:34:18;99274.00;;;16.97;67.76
73501;BME280;61721;42.206;25.320;2023-05-23T05:36:56;99278.81;;;17.40;67.08
73501;BME280;61721;42.206;25.320;2023-05-23T05:39:34;99280.81;;;16.29;69.82
73501;BME280;61721;42.206;25.320;2023-05-23T05:42:11;99286.41;;;16.73;69.13
73501;BME280;61721;42.206;25.320;2023-05-23T05:44:47;99292.59;;;17.00;68.59
73501;BME280;61721;42.206;25.320;2023-05-23T05:47:23;99292.25;;;16.83;69.39
73501;BME280;61721;42.206;25.320;2023-05-23T05:50:00;99286.84;;;16.70;68.77
73501;BME280;61721;42.206;25.320;2023-05-23T05:52:36;99282.66;;;16.68;69.81
73501;BME280;61721;42.206;25.320;2023-05-23T05:55:14;99282.66;;;17.64;67.18
73501;BME280;61721;42.206;25.320;2023-05-23T05:57:51;99288.75;;;17.21;68.53
73501;BME280;61721;42.206;25.320;2023-05-23T06:00:35;99281.59;;;17.71;67.15
73501;BME280;61721;42.206;25.320;2023-05-23T06:03:13;99292.78;;;18.13;66.22
73501;BME280;61721;42.206;25.320;2023-05-23T06:05:49;99283.47;;;18.21;65.95
73501;BME280;61721;42.206;25.320;2023-05-23T06:08:25;99280.72;;;18.02;65.62
73501;BME280;61721;42.206;25.320;2023-05-23T06:11:04;99286.00;;;17.97;65.54
73501;BME280;61721;42.206;25.320;2023-05-23T06:13:40;99285.69;;;18.12;65.73
73501;BME280;61721;42.206;25.320;2023-05-23T06:16:17;99282.81;;;17.75;66.23
73501;BME280;61721;42.206;25.320;2023-05-23T06:18:53;99284.84;;;18.30;64.56
73501;BME280;61721;42.206;25.320;2023-05-23T06:21:29;99287.53;;;18.36;64.85
73501;BME280;61721;42.206;25.320;2023-05-23T06:24:05;99289.03;;;18.75;64.04
73501;BME280;61721;42.206;25.320;2023-05-23T06:26:44;99287.84;;;18.71;63.43
73501;BME280;61721;42.206;25.320;2023-05-23T06:29:21;99292.19;;;18.29;64.50
73501;BME280;61721;42.206;25.320;2023-05-23T06:31:57;99287.44;;;18.68;63.36
73501;BME280;61721;42.206;25.320;2023-05-23T06:34:33;99299.88;;;19.19;62.42
73501;BME280;61721;42.206;25.320;2023-05-23T06:37:09;99290.47;;;18.78;63.83
73501;BME280;61721;42.206;25.320;2023-05-23T06:39:46;99277.03;;;19.31;62.13
73501;BME280;61721;42.206;25.320;2023-05-23T06:42:26;99275.28;;;18.45;65.12
73501;BME280;61721;42.206;25.320;2023-05-23T06:45:04;99271.03;;;18.06;66.11
73501;BME280;61721;42.206;25.320;2023-05-23T06:47:40;99266.72;;;18.42;66.16
73501;BME280;61721;42.206;25.320;2023-05-23T06:50:18;99273.22;;;18.84;64.97
73501;BME280;61721;42.206;25.320;2023-05-23T06:52:54;99276.44;;;19.29;63.65
73501;BME280;61721;42.206;25.320;2023-05-23T06:55:30;99273.13;;;19.57;62.48
73501;BME280;61721;42.206;25.320;2023-05-23T06:58:08;99272.38;;;19.02;65.38
73501;BME280;61721;42.206;25.320;2023-05-23T07:00:45;99265.16;;;19.07;64.05
73501;BME280;61721;42.206;25.320;2023-05-23T07:03:22;99265.84;;;19.51;64.13
73501;BME280;61721;42.206;25.320;2023-05-23T07:05:59;99262.38;;;19.74;63.58
73501;BME280;61721;42.206;25.320;2023-05-23T07:08:35;99259.19;;;19.89;63.17
73501;BME280;61721;42.206;25.320;2023-05-23T07:11:11;99255.19;;;20.15;62.19
73501;BME280;61721;42.206;25.320;2023-05-23T07:13:49;99257.44;;;19.94;62.90
73501;BME280;61721;42.206;25.320;2023-05-23T07:16:26;99253.66;;;20.19;60.91
73501;BME280;61721;42.206;25.320;2023-05-23T07:19:03;99259.41;;;20.40;61.48
73501;BME280;61721;42.206;25.320;2023-05-23T07:21:39;99254.28;;;20.44;59.56
73501;BME280;61721;42.206;25.320;2023-05-23T07:24:15;99253.88;;;20.05;58.46
73501;BME280;61721;42.206;25.320;2023-05-23T07:26:51;99260.63;;;20.85;57.78
73501;BME280;61721;42.206;25.320;2023-05-23T07:29:29;99248.84;;;20.84;57.65
73501;BME280;61721;42.206;25.320;2023-05-23T07:32:06;99246.09;;;20.96;58.02
73501;BME280;61721;42.206;25.320;2023-05-23T07:34:42;99248.16;;;21.29;55.83
73501;BME280;61721;42.206;25.320;2023-05-23T07:37:18;99247.28;;;21.40;57.17
73501;BME280;61721;42.206;25.320;2023-05-23T07:39:54;99242.44;;;21.19;56.90
73501;BME280;61721;42.206;25.320;2023-05-23T07:42:29;99241.50;;;21.25;56.71
73501;BME280;61721;42.206;25.320;2023-05-23T07:45:08;99239.41;;;21.44;54.92
73501;BME280;61721;42.206;25.320;2023-05-23T07:47:45;99240.91;;;21.11;56.03
73501;BME280;61721;42.206;25.320;2023-05-23T07:50:21;99244.88;;;21.89;54.35
73501;BME280;61721;42.206;25.320;2023-05-23T07:53:00;99248.06;;;21.52;56.13
73501;BME280;61721;42.206;25.320;2023-05-23T07:55:36;99243.25;;;21.31;56.66
73501;BME280;61721;42.206;25.320;2023-05-23T07:58:11;99244.75;;;21.67;55.52
73501;BME280;61721;42.206;25.320;2023-05-23T08:00:50;99251.66;;;21.69;57.07
73501;BME280;61721;42.206;25.320;2023-05-23T08:03:35;99247.44;;;21.79;56.16
73501;BME280;61721;42.206;25.320;2023-05-23T08:06:11;99241.63;;;21.75;52.57
73501;BME280;61721;42.206;25.320;2023-05-23T08:08:46;99245.81;;;22.11;53.33
73501;BME280;61721;42.206;25.320;2023-05-23T08:11:23;99240.91;;;22.13;51.88
73501;BME280;61721;42.206;25.320;2023-05-23T08:14:00;99243.38;;;22.48;50.08
73501;BME280;61721;42.206;25.320;2023-05-23T08:16:38;99240.59;;;22.65;49.41
73501;BME280;61721;42.206;25.320;2023-05-23T08:19:15;99235.50;;;22.74;50.24
73501;BME280;61721;42.206;25.320;2023-05-23T08:21:50;99244.47;;;23.08;50.15
73501;BME280;61721;42.206;25.320;2023-05-23T08:24:27;99240.00;;;22.80;47.45
73501;BME280;61721;42.206;25.320;2023-05-23T08:27:05;99231.56;;;22.86;48.70
73501;BME280;61721;42.206;25.320;2023-05-23T08:29:40;99236.56;;;22.89;48.36
73501;BME280;61721;42.206;25.320;2023-05-23T08:32:20;99235.28;;;23.19;46.74
73501;BME280;61721;42.206;25.320;2023-05-23T08:34:57;99230.72;;;23.56;46.43
73501;BME280;61721;42.206;25.320;2023-05-23T08:37:33;99226.94;;;23.62;46.36
73501;BME280;61721;42.206;25.320;2023-05-23T08:40:13;99222.53;;;23.93;45.20
73501;BME280;61721;42.206;25.320;2023-05-23T08:42:49;99225.13;;;23.73;45.96
73501;BME280;61721;42.206;25.320;2023-05-23T08:45:26;99227.09;;;23.24;45.49
73501;BME280;61721;42.206;25.320;2023-05-23T08:48:07;99214.94;;;23.20;46.00
73501;BME280;61721;42.206;25.320;2023-05-23T08:50:46;99216.53;;;23.38;46.81
73501;BME280;61721;42.206;25.320;2023-05-23T08:53:24;99224.13;;;23.57;47.66
73501;BME280;61721;42.206;25.320;2023-05-23T08:56:02;99210.91;;;24.18;45.69
73501;BME280;61721;42.206;25.320;2023-05-23T08:58:40;99197.94;;;24.14;43.80
73501;BME280;61721;42.206;25.320;2023-05-23T09:01:24;99218.06;;;23.55;44.93
73501;BME280;61721;42.206;25.320;2023-05-23T09:04:05;99219.31;;;23.16;45.65
73501;BME280;61721;42.206;25.320;2023-05-23T09:06:41;99218.91;;;23.29;45.02
73501;BME280;61721;42.206;25.320;2023-05-23T09:09:17;99218.19;;;23.39;44.01
73501;BME280;61721;42.206;25.320;2023-05-23T09:11:54;99211.03;;;23.43;44.52
73501;BME280;61721;42.206;25.320;2023-05-23T09:14:31;99208.78;;;23.93;43.84
73501;BME280;61721;42.206;25.320;2023-05-23T09:17:08;99204.47;;;23.71;43.86
73501;BME280;61721;42.206;25.320;2023-05-23T09:19:46;99202.41;;;23.56;43.83
73501;BME280;61721;42.206;25.320;2023-05-23T09:22:23;99201.81;;;24.18;43.37
73501;BME280;61721;42.206;25.320;2023-05-23T09:25:00;99206.59;;;24.75;42.15
73501;BME280;61721;42.206;25.320;2023-05-23T09:27:37;99204.09;;;24.68;40.17
73501;BME280;61721;42.206;25.320;2023-05-23T09:30:13;99189.19;;;24.22;41.46
73501;BME280;61721;42.206;25.320;2023-05-23T09:32:57;99208.56;;;24.00;42.08
73501;BME280;61721;42.206;25.320;2023-05-23T09:35:43;99202.16;;;23.89;42.58
73501;BME280;61721;42.206;25.320;2023-05-23T09:38:19;99212.78;;;23.76;44.12
73501;BME280;61721;42.206;25.320;2023-05-23T09:40:54;99221.78;;;24.03;42.83
73501;BME280;61721;42.206;25.320;2023-05-23T09:43:31;99218.97;;;23.93;43.29
73501;BME280;61721;42.206;25.320;2023-05-23T09:46:08;99221.28;;;22.98;46.51
73501;BME280;61721;42.206;25.320;2023-05-23T09:48:45;99211.22;;;23.31;47.13
73501;BME280;61721;42.206;25.320;2023-05-23T09:51:25;99209.72;;;23.18;47.52
73501;BME280;61721;42.206;25.320;2023-05-23T09:54:02;99212.78;;;22.78;48.04
73501;BME280;61721;42.206;25.320;2023-05-23T09:56:39;99208.88;;;22.74;48.21
73501;BME280;61721;42.206;25.320;2023-05-23T09:59:17;99211.94;;;22.78;48.81
73501;BME280;61721;42.206;25.320;2023-05-23T10:01:56;99217.81;;;22.64;49.85
73501;BME280;61721;42.206;25.320;2023-05-23T10:04:40;99226.53;;;22.23;50.01
73501;BME280;61721;42.206;25.320;2023-05-23T10:07:22;99239.25;;;22.29;53.28
73501;BME280;61721;42.206;25.320;2023-05-23T10:10:03;99222.69;;;21.74;57.52
73501;BME280;61721;42.206;25.320;2023-05-23T10:12:42;99223.97;;;21.54;58.83
73501;BME280;61721;42.206;25.320;2023-05-23T10:15:21;99228.59;;;21.37;59.43
73501;BME280;61721;42.206;25.320;2023-05-23T10:18:06;99201.97;;;21.21;60.06
73501;BME280;61721;42.206;25.320;2023-05-23T10:20:48;99217.31;;;21.50;61.07
73501;BME280;61721;42.206;25.320;2023-05-23T10:23:30;99220.88;;;21.34;61.20
73501;BME280;61721;42.206;25.320;2023-05-23T10:26:09;99218.41;;;21.49;60.45
73501;BME280;61721;42.206;25.320;2023-05-23T10:28:46;99224.41;;;21.63;60.20
73501;BME280;61721;42.206;25.320;2023-05-23T10:31:30;99218.41;;;22.11;59.87
73501;BME280;61721;42.206;25.320;2023-05-23T10:34:24;99219.66;;;22.03;60.25
73501;BME280;61721;42.206;25.320;2023-05-23T10:37:03;99214.53;;;21.95;60.60
73501;BME280;61721;42.206;25.320;2023-05-23T10:39:51;99227.50;;;21.83;59.54
73501;BME280;61721;42.206;25.320;2023-05-23T10:42:37;99219.78;;;21.97;58.57
73501;BME280;61721;42.206;25.320;2023-05-23T10:45:18;99217.13;;;22.35;58.44
73501;BME280;61721;42.206;25.320;2023-05-23T10:47:54;99209.69;;;22.53;57.55
73501;BME280;61721;42.206;25.320;2023-05-23T10:50:31;99203.00;;;22.27;55.79
73501;BME280;61721;42.206;25.320;2023-05-23T10:53:15;99200.69;;;22.02;58.02
73501;BME280;61721;42.206;25.320;2023-05-23T10:55:55;99193.97;;;22.10;59.35
73501;BME280;61721;42.206;25.320;2023-05-23T10:58:31;99197.34;;;21.83;59.55
73501;BME280;61721;42.206;25.320;2023-05-23T11:01:15;99192.03;;;21.60;58.57
73501;BME280;61721;42.206;25.320;2023-05-23T11:04:04;99188.47;;;21.76;58.67
73501;BME280;61721;42.206;25.320;2023-05-23T11:06:42;99194.69;;;21.88;59.33
73501;BME280;61721;42.206;25.320;2023-05-23T11:09:19;99207.91;;;21.75;58.51
73501;BME280;61721;42.206;25.320;2023-05-23T11:12:00;99203.84;;;22.27;58.66
73501;BME280;61721;42.206;25.320;2023-05-23T11:14:52;99201.25;;;22.21;56.34
73501;BME280;61721;42.206;25.320;2023-05-23T11:17:32;99196.69;;;22.26;55.16
73501;BME280;61721;42.206;25.320;2023-05-23T11:20:09;99196.59;;;22.21;57.81
73501;BME280;61721;42.206;25.320;2023-05-23T11:22:58;99199.78;;;22.13;54.59
73501;BME280;61721;42.206;25.320;2023-05-23T11:25:42;99205.78;;;22.49;55.64
73501;BME280;61721;42.206;25.320;2023-05-23T11:28:20;99208.47;;;22.82;53.82
73501;BME280;61721;42.206;25.320;2023-05-23T11:30:57;99197.81;;;22.69;54.04
73501;BME280;61721;42.206;25.320;2023-05-23T11:33:33;99200.44;;;22.20;54.47
73501;BME280;61721;42.206;25.320;2023-05-23T11:36:12;99199.66;;;22.63;53.35
73501;BME280;61721;42.206;25.320;2023-05-23T11:38:51;99198.72;;;22.53;51.14
73501;BME280;61721;42.206;25.320;2023-05-23T11:41:34;99204.00;;;22.59;53.64
73501;BME280;61721;42.206;25.320;2023-05-23T11:44:13;99211.47;;;22.81;52.89
73501;BME280;61721;42.206;25.320;2023-05-23T11:46:58;99192.38;;;22.52;53.47
73501;BME280;61721;42.206;25.320;2023-05-23T11:49:36;99195.72;;;22.54;53.09
73501;BME280;61721;42.206;25.320;2023-05-23T11:52:14;99200.38;;;22.54;52.02
73501;BME280;61721;42.206;25.320;2023-05-23T11:54:49;99201.47;;;23.18;52.06
73501;BME280;61721;42.206;25.320;2023-05-23T11:57:27;99200.06;;;23.16;51.09
73501;BME280;61721;42.206;25.320;2023-05-23T12:00:07;99197.91;;;23.18;51.85
73501;BME280;61721;42.206;25.320;2023-05-23T12:02:44;99196.09;;;23.87;51.22
73501;BME280;61721;42.206;25.320;2023-05-23T12:05:27;99192.16;;;23.51;50.54
73501;BME280;61721;42.206;25.320;2023-05-23T12:08:05;99189.72;;;23.23;51.68
73501;BME280;61721;42.206;25.320;2023-05-23T12:10:56;99193.16;;;23.67;51.04
73501;BME280;61721;42.206;25.320;2023-05-23T12:13:32;99190.84;;;23.86;50.63
73501;BME280;61721;42.206;25.320;2023-05-23T12:16:12;99192.34;;;23.67;49.23
73501;BME280;61721;42.206;25.320;2023-05-23T12:18:49;99186.34;;;24.07;49.81
73501;BME280;61721;42.206;25.320;2023-05-23T12:21:25;99186.53;;;23.63;49.52
73501;BME280;61721;42.206;25.320;2023-05-23T12:24:12;99182.72;;;24.01;48.53
73501;BME280;61721;42.206;25.320;2023-05-23T12:26:50;99181.97;;;23.74;50.71
73501;BME280;61721;42.206;25.320;2023-05-23T12:29:28;99171.78;;;23.74;50.97
73501;BME280;61721;42.206;25.320;2023-05-23T12:32:07;99172.44;;;24.23;50.06
73501;BME280;61721;42.206;25.320;2023-05-23T12:34:43;99177.69;;;24.72;49.45
73501;BME280;61721;42.206;25.320;2023-05-23T12:37:22;99177.72;;;24.82;50.32
73501;BME280;61721;42.206;25.320;2023-05-23T12:40:11;99183.03;;;24.42;47.01
73501;BME280;61721;42.206;25.320;2023-05-23T12:42:51;99181.03;;;24.32;49.17
73501;BME280;61721;42.206;25.320;2023-05-23T12:45:31;99170.94;;;24.48;48.99
73501;BME280;61721;42.206;25.320;2023-05-23T12:48:10;99163.78;;;24.47;47.22
73501;BME280;61721;42.206;25.320;2023-05-23T12:50:47;99159.38;;;25.08;45.99
73501;BME280;61721;42.206;25.320;2023-05-23T12:56:41;99152.50;;;24.06;46.39
73501;BME280;61721;42.206;25.320;2023-05-23T12:59:16;99149.47;;;24.45;48.72
73501;BME280;61721;42.206;25.320;2023-05-23T13:02:00;99145.28;;;23.95;46.31
73501;BME280;61721;42.206;25.320;2023-05-23T13:04:38;99143.31;;;23.90;50.74
73501;BME280;61721;42.206;25.320;2023-05-23T13:07:16;99149.91;;;24.26;51.56
73501;BME280;61721;42.206;25.320;2023-05-23T13:09:53;99140.50;;;23.53;52.57
73501;BME280;61721;42.206;25.320;2023-05-23T13:12:29;99134.38;;;23.41;54.64
73501;BME280;61721;42.206;25.320;2023-05-23T13:15:11;99137.63;;;23.33;53.45
73501;BME280;61721;42.206;25.320;2023-05-23T13:17:47;99132.69;;;23.35;54.25
73501;BME280;61721;42.206;25.320;2023-05-23T13:20:27;99134.94;;;23.43;53.23
73501;BME280;61721;42.206;25.320;2023-05-23T13:23:03;99142.66;;;23.46;51.09
73501;BME280;61721;42.206;25.320;2023-05-23T13:25:40;99154.59;;;23.57;50.29
73501;BME280;61721;42.206;25.320;2023-05-23T13:28:16;99163.28;;;23.76;51.72
73501;BME280;61721;42.206;25.320;2023-05-23T13:30:52;99155.63;;;23.83;50.68
73501;BME280;61721;42.206;25.320;2023-05-23T13:33:28;99158.94;;;24.22;52.44
73501;BME280;61721;42.206;25.320;2023-05-23T13:36:06;99152.00;;;24.56;53.01
73501;BME280;61721;42.206;25.320;2023-05-23T13:38:42;99147.91;;;23.80;53.83
73501;BME280;61721;42.206;25.320;2023-05-23T13:41:18;99149.66;;;23.91;54.06
73501;BME280;61721;42.206;25.320;2023-05-23T13:43:54;99144.13;;;23.54;52.43
73501;BME280;61721;42.206;25.320;2023-05-23T13:46:31;99136.94;;;23.85;51.54
73501;BME280;61721;42.206;25.320;2023-05-23T13:49:07;99135.75;;;23.71;51.51
73501;BME280;61721;42.206;25.320;2023-05-23T13:51:45;99134.19;;;23.85;50.94